sensor_id;sensor_type;location;lat;lon;timestamp;pressure;altitude;pressure_sealevel;temperature;humidity
32492;BME280;20605;49.742;18.802;2023-02-18T00:01:11;97623.59;;;10.11;100.00
32492;BME280;20605;49.742;18.802;2023-02-18T00:03:37;97620.08;;;10.12;100.00
32492;BME280;20605;49.742;18.802;2023-02-18T00:06:22;97616.95;;;10.12;100.00
32492;BME280;20605;49.742;18.802;2023-02-18T00:08:49;97618.25;;;10.10;100.00
32492;BME280;20605;49.742;18.802;2023-02-18T00:11:16;97620.52;;;10.09;100.00
32492;BME280;20605;49.742;18.802;2023-02-18T00:13:42;97623.82;;;10.09;100.00
32492;BME280;20605;49.742;18.802;2023-02-18T00:16:11;97627.67;;;10.08;100.00
32492;BME280;20605;49.742;18.802;2023-02-18T00:18:38;97632.73;;;10.07;100.00
32492;BME280;20605;49.742;18.802;2023-02-18T00:21:05;97636.27;;;10.05;100.00
32492;BME280;20605;49.742;18.802;2023-02-18T00:23:32;97646.88;;;10.04;100.00
32492;BME280;20605;49.742;18.802;2023-02-18T00:26:03;97633.40;;;10.03;100.00
32492;BME280;20605;49.742;18.802;2023-02-18T00:28:29;97629.33;;;10.00;100.00
32492;BME280;20605;49.742;18.802;2023-02-18T00:30:55;97626.61;;;9.98;100.00
32492;BME280;20605;49.742;18.802;2023-02-18T00:33:23;97634.23;;;9.99;100.00
32492;BME280;20605;49.742;18.802;2023-02-18T00:35:48;97637.17;;;9.99;100.00
32492;BME280;20605;49.742;18.802;2023-02-18T00:38:15;97638.92;;;9.99;100.00
32492;BME280;20605;49.742;18.802;2023-02-18T00:40:40;97636.73;;;9.97;100.00
32492;BME280;20605;49.742;18.802;2023-02-18T00:43:08;97626.73;;;9.95;100.00
32492;BME280;20605;49.742;18.802;2023-02-18T00:45:34;97634.98;;;9.92;100.00
32492;BME280;20605;49.742;18.802;2023-02-18T00:48:00;97629.66;;;9.90;100.00
32492;BME280;20605;49.742;18.802;2023-02-18T00:50:25;97626.77;;;9.88;100.00
32492;BME280;20605;49.742;18.802;2023-02-18T00:52:51;97627.38;;;9.86;100.00
32492;BME280;20605;49.742;18.802;2023-02-18T00:55:17;97619.95;;;9.85;100.00
32492;BME280;20605;49.742;18.802;2023-02-18T00:57:43;97631.14;;;9.81;100.00
32492;BME280;20605;49.742;18.802;2023-02-18T01:00:09;97637.48;;;9.78;100.00
32492;BME280;20605;49.742;18.802;2023-02-18T01:02:35;97640.05;;;9.74;100.00
32492;BME280;20605;49.742;18.802;2023-02-18T01:05:01;97641.19;;;9.70;100.00
32492;BME280;20605;49.742;18.802;2023-02-18T01:07:27;97636.30;;;9.66;100.00
32492;BME280;20605;49.742;18.802;2023-02-18T01:09:53;97634.91;;;9.61;100.00
32492;BME280;20605;49.742;18.802;2023-02-18T01:12:19;97643.04;;;9.55;100.00
32492;BME280;20605;49.742;18.802;2023-02-18T01:14:44;97648.26;;;9.48;100.00
32492;BME280;20605;49.742;18.802;2023-02-18T01:17:10;97645.66;;;9.43;100.00
32492;BME280;20605;49.742;18.802;2023-02-18T01:19:37;97655.98;;;9.40;100.00
32492;BME280;20605;49.742;18.802;2023-02-18T01:22:04;97657.99;;;9.36;100.00
32492;BME280;20605;49.742;18.802;2023-02-18T01:24:31;97657.81;;;9.30;100.00
32492;BME280;20605;49.742;18.802;2023-02-18T01:26:59;97659.66;;;9.26;100.00
32492;BME280;20605;49.742;18.802;2023-02-18T01:29:25;97658.17;;;9.24;100.00
32492;BME280;20605;49.742;18.802;2023-02-18T01:31:50;97658.91;;;9.22;100.00
32492;BME280;20605;49.742;18.802;2023-02-18T01:34:16;97662.55;;;9.22;100.00
32492;BME280;20605;49.742;18.802;2023-02-18T01:36:42;97661.30;;;9.24;100.00
32492;BME280;20605;49.742;18.802;2023-02-18T01:39:08;97663.85;;;9.26;100.00
32492;BME280;20605;49.742;18.802;2023-02-18T01:41:33;97665.98;;;9.30;100.00
32492;BME280;20605;49.742;18.802;2023-02-18T01:44:23;97666.61;;;9.31;100.00
32492;BME280;20605;49.742;18.802;2023-02-18T01:46:49;97662.58;;;9.33;100.00
32492;BME280;20605;49.742;18.802;2023-02-18T01:49:20;97662.33;;;9.36;100.00
32492;BME280;20605;49.742;18.802;2023-02-18T01:51:56;97667.11;;;9.38;100.00
32492;BME280;20605;49.742;18.802;2023-02-18T01:54:40;97671.58;;;9.40;100.00
32492;BME280;20605;49.742;18.802;2023-02-18T01:57:29;97663.23;;;9.40;100.00
32492;BME280;20605;49.742;18.802;2023-02-18T02:00:10;97672.73;;;9.41;100.00
32492;BME280;20605;49.742;18.802;2023-02-18T02:02:46;97683.61;;;9.43;100.00
32492;BME280;20605;49.742;18.802;2023-02-18T02:05:14;97685.47;;;9.44;100.00
32492;BME280;20605;49.742;18.802;2023-02-18T02:07:41;97673.02;;;9.44;100.00
32492;BME280;20605;49.742;18.802;2023-02-18T02:10:09;97684.59;;;9.45;100.00
32492;BME280;20605;49.742;18.802;2023-02-18T02:18:59;97693.63;;;9.44;100.00
32492;BME280;20605;49.742;18.802;2023-02-18T02:35:17;97712.75;;;9.12;100.00
32492;BME280;20605;49.742;18.802;2023-02-18T02:38:05;97732.98;;;9.07;100.00
32492;BME280;20605;49.742;18.802;2023-02-18T02:40:45;97745.73;;;9.03;100.00
32492;BME280;20605;49.742;18.802;2023-02-18T02:43:40;97731.81;;;8.99;100.00
32492;BME280;20605;49.742;18.802;2023-02-18T02:46:18;97697.00;;;8.93;100.00
32492;BME280;20605;49.742;18.802;2023-02-18T02:54:57;97744.98;;;8.78;100.00
32492;BME280;20605;49.742;18.802;2023-02-18T02:59:59;97729.44;;;8.77;100.00
32492;BME280;20605;49.742;18.802;2023-02-18T03:05:09;97721.54;;;8.68;100.00
32492;BME280;20605;49.742;18.802;2023-02-18T03:15:45;97725.29;;;8.42;100.00
32492;BME280;20605;49.742;18.802;2023-02-18T03:23:38;97733.52;;;8.45;100.00
32492;BME280;20605;49.742;18.802;2023-02-18T03:26:08;97734.87;;;8.47;100.00
32492;BME280;20605;49.742;18.802;2023-02-18T03:28:34;97732.04;;;8.49;100.00
32492;BME280;20605;49.742;18.802;2023-02-18T03:31:12;97728.23;;;8.50;100.00
32492;BME280;20605;49.742;18.802;2023-02-18T03:33:49;97740.80;;;8.52;100.00
32492;BME280;20605;49.742;18.802;2023-02-18T03:36:18;97739.84;;;8.56;100.00
32492;BME280;20605;49.742;18.802;2023-02-18T03:38:52;97740.52;;;8.57;100.00
32492;BME280;20605;49.742;18.802;2023-02-18T03:41:20;97749.00;;;8.57;100.00
32492;BME280;20605;49.742;18.802;2023-02-18T03:43:52;97755.05;;;8.57;100.00
32492;BME280;20605;49.742;18.802;2023-02-18T03:46:19;97761.22;;;8.59;100.00
32492;BME280;20605;49.742;18.802;2023-02-18T03:48:45;97761.89;;;8.60;100.00
32492;BME280;20605;49.742;18.802;2023-02-18T03:51:11;97757.05;;;8.60;100.00
32492;BME280;20605;49.742;18.802;2023-02-18T03:53:37;97770.41;;;8.59;100.00
32492;BME280;20605;49.742;18.802;2023-02-18T03:56:03;97768.69;;;8.59;100.00
32492;BME280;20605;49.742;18.802;2023-02-18T03:58:29;97769.06;;;8.57;100.00
32492;BME280;20605;49.742;18.802;2023-02-18T04:00:55;97774.08;;;8.57;100.00
32492;BME280;20605;49.742;18.802;2023-02-18T04:03:21;97777.73;;;8.56;100.00
32492;BME280;20605;49.742;18.802;2023-02-18T04:05:47;97777.92;;;8.56;100.00
32492;BME280;20605;49.742;18.802;2023-02-18T04:08:13;97784.71;;;8.54;100.00
32492;BME280;20605;49.742;18.802;2023-02-18T04:10:38;97784.62;;;8.51;100.00
32492;BME280;20605;49.742;18.802;2023-02-18T04:13:04;97786.33;;;8.44;100.00
32492;BME280;20605;49.742;18.802;2023-02-18T04:15:30;97791.30;;;8.38;100.00
32492;BME280;20605;49.742;18.802;2023-02-18T04:17:56;97797.25;;;8.36;100.00
32492;BME280;20605;49.742;18.802;2023-02-18T04:20:22;97798.52;;;8.33;100.00
32492;BME280;20605;49.742;18.802;2023-02-18T04:22:48;97791.28;;;8.31;100.00
32492;BME280;20605;49.742;18.802;2023-02-18T04:25:14;97790.30;;;8.29;100.00
32492;BME280;20605;49.742;18.802;2023-02-18T04:27:40;97799.73;;;8.25;100.00
32492;BME280;20605;49.742;18.802;2023-02-18T04:30:06;97802.11;;;8.19;100.00
32492;BME280;20605;49.742;18.802;2023-02-18T04:32:32;97790.34;;;8.11;100.00
32492;BME280;20605;49.742;18.802;2023-02-18T04:34:58;97798.09;;;8.04;100.00
32492;BME280;20605;49.742;18.802;2023-02-18T04:37:25;97794.31;;;8.03;100.00
32492;BME280;20605;49.742;18.802;2023-02-18T04:39:51;97794.46;;;7.97;100.00
32492;BME280;20605;49.742;18.802;2023-02-18T04:42:17;97795.72;;;7.95;100.00
32492;BME280;20605;49.742;18.802;2023-02-18T04:44:42;97795.00;;;7.96;100.00
32492;BME280;20605;49.742;18.802;2023-02-18T04:47:08;97792.08;;;7.95;100.00
32492;BME280;20605;49.742;18.802;2023-02-18T04:49:34;97787.48;;;7.91;100.00
32492;BME280;20605;49.742;18.802;2023-02-18T04:52:00;97791.86;;;7.89;100.00
32492;BME280;20605;49.742;18.802;2023-02-18T04:54:26;97791.91;;;7.86;100.00
32492;BME280;20605;49.742;18.802;2023-02-18T04:56:52;97783.09;;;7.87;100.00
32492;BME280;20605;49.742;18.802;2023-02-18T04:59:18;97791.04;;;7.87;100.00
32492;BME280;20605;49.742;18.802;2023-02-18T05:01:44;97790.36;;;7.86;100.00
32492;BME280;20605;49.742;18.802;2023-02-18T05:04:10;97789.83;;;7.87;100.00
32492;BME280;20605;49.742;18.802;2023-02-18T05:06:36;97789.62;;;7.89;100.00
32492;BME280;20605;49.742;18.802;2023-02-18T05:09:05;97789.10;;;7.89;100.00
32492;BME280;20605;49.742;18.802;2023-02-18T05:11:31;97787.69;;;7.90;100.00
32492;BME280;20605;49.742;18.802;2023-02-18T05:13:57;97789.21;;;7.91;100.00
32492;BME280;20605;49.742;18.802;2023-02-18T05:16:22;97793.38;;;7.91;100.00
32492;BME280;20605;49.742;18.802;2023-02-18T05:18:48;97789.21;;;7.91;100.00
32492;BME280;20605;49.742;18.802;2023-02-18T05:21:14;97783.68;;;7.91;100.00
32492;BME280;20605;49.742;18.802;2023-02-18T05:23:40;97789.15;;;7.86;100.00
32492;BME280;20605;49.742;18.802;2023-02-18T05:26:06;97786.96;;;7.83;100.00
32492;BME280;20605;49.742;18.802;2023-02-18T05:28:32;97787.98;;;7.84;100.00
32492;BME280;20605;49.742;18.802;2023-02-18T05:30:58;97791.05;;;7.87;100.00
32492;BME280;20605;49.742;18.802;2023-02-18T05:33:24;97795.48;;;7.89;100.00
32492;BME280;20605;49.742;18.802;2023-02-18T05:35:50;97789.91;;;7.91;100.00
32492;BME280;20605;49.742;18.802;2023-02-18T05:38:15;97784.04;;;7.91;100.00
32492;BME280;20605;49.742;18.802;2023-02-18T05:40:41;97788.03;;;7.90;100.00
32492;BME280;20605;49.742;18.802;2023-02-18T05:43:07;97793.10;;;7.88;100.00
32492;BME280;20605;49.742;18.802;2023-02-18T05:45:33;97796.07;;;7.86;100.00
32492;BME280;20605;49.742;18.802;2023-02-18T05:47:59;97803.54;;;7.84;100.00
32492;BME280;20605;49.742;18.802;2023-02-18T05:50:24;97804.58;;;7.84;100.00
32492;BME280;20605;49.742;18.802;2023-02-18T05:52:50;97799.61;;;7.82;100.00
32492;BME280;20605;49.742;18.802;2023-02-18T05:55:16;97809.61;;;7.83;100.00
32492;BME280;20605;49.742;18.802;2023-02-18T05:57:42;97800.35;;;7.88;100.00
32492;BME280;20605;49.742;18.802;2023-02-18T06:00:08;97811.56;;;7.89;100.00
32492;BME280;20605;49.742;18.802;2023-02-18T06:02:35;97809.63;;;7.91;100.00
32492;BME280;20605;49.742;18.802;2023-02-18T06:05:02;97814.57;;;7.94;100.00
32492;BME280;20605;49.742;18.802;2023-02-18T06:07:27;97814.00;;;7.96;100.00
32492;BME280;20605;49.742;18.802;2023-02-18T06:09:53;97808.62;;;7.98;100.00
32492;BME280;20605;49.742;18.802;2023-02-18T06:12:19;97811.86;;;7.99;100.00
32492;BME280;20605;49.742;18.802;2023-02-18T06:14:45;97812.00;;;8.01;100.00
32492;BME280;20605;49.742;18.802;2023-02-18T06:17:11;97821.63;;;8.04;100.00
32492;BME280;20605;49.742;18.802;2023-02-18T06:19:38;97822.76;;;8.07;100.00
32492;BME280;20605;49.742;18.802;2023-02-18T06:22:04;97822.48;;;8.12;100.00
32492;BME280;20605;49.742;18.802;2023-02-18T06:24:30;97825.45;;;8.19;100.00
32492;BME280;20605;49.742;18.802;2023-02-18T06:26:56;97822.06;;;8.24;100.00
32492;BME280;20605;49.742;18.802;2023-02-18T06:29:22;97825.11;;;8.27;100.00
32492;BME280;20605;49.742;18.802;2023-02-18T06:31:48;97833.52;;;8.29;100.00
32492;BME280;20605;49.742;18.802;2023-02-18T06:34:14;97837.45;;;8.32;100.00
32492;BME280;20605;49.742;18.802;2023-02-18T06:36:40;97844.34;;;8.35;100.00
32492;BME280;20605;49.742;18.802;2023-02-18T06:39:06;97844.27;;;8.38;100.00
32492;BME280;20605;49.742;18.802;2023-02-18T06:41:33;97843.33;;;8.41;100.00
32492;BME280;20605;49.742;18.802;2023-02-18T06:43:59;97843.10;;;8.43;100.00
32492;BME280;20605;49.742;18.802;2023-02-18T06:46:25;97848.78;;;8.45;100.00
32492;BME280;20605;49.742;18.802;2023-02-18T06:48:50;97850.67;;;8.45;100.00
32492;BME280;20605;49.742;18.802;2023-02-18T06:51:16;97845.16;;;8.45;100.00
32492;BME280;20605;49.742;18.802;2023-02-18T06:53:44;97842.40;;;8.44;100.00
32492;BME280;20605;49.742;18.802;2023-02-18T06:56:11;97846.89;;;8.44;100.00
32492;BME280;20605;49.742;18.802;2023-02-18T06:58:37;97856.33;;;8.47;100.00
32492;BME280;20605;49.742;18.802;2023-02-18T07:01:03;97862.85;;;8.50;100.00
32492;BME280;20605;49.742;18.802;2023-02-18T07:03:29;97857.52;;;8.48;100.00
32492;BME280;20605;49.742;18.802;2023-02-18T07:05:55;97855.51;;;8.46;100.00
32492;BME280;20605;49.742;18.802;2023-02-18T07:08:21;97860.13;;;8.48;100.00
32492;BME280;20605;49.742;18.802;2023-02-18T07:10:48;97857.67;;;8.49;100.00
32492;BME280;20605;49.742;18.802;2023-02-18T07:13:14;97861.80;;;8.51;100.00
32492;BME280;20605;49.742;18.802;2023-02-18T07:15:40;97863.14;;;8.53;100.00
32492;BME280;20605;49.742;18.802;2023-02-18T07:18:06;97863.63;;;8.54;100.00
32492;BME280;20605;49.742;18.802;2023-02-18T07:20:31;97858.87;;;8.58;100.00
32492;BME280;20605;49.742;18.802;2023-02-18T07:22:57;97853.08;;;8.62;100.00
32492;BME280;20605;49.742;18.802;2023-02-18T07:25:24;97852.52;;;8.64;100.00
32492;BME280;20605;49.742;18.802;2023-02-18T07:27:50;97851.36;;;8.68;100.00
32492;BME280;20605;49.742;18.802;2023-02-18T07:30:17;97852.52;;;8.71;100.00
32492;BME280;20605;49.742;18.802;2023-02-18T07:32:43;97854.55;;;8.73;100.00
32492;BME280;20605;49.742;18.802;2023-02-18T07:35:10;97855.47;;;8.77;100.00
32492;BME280;20605;49.742;18.802;2023-02-18T07:37:37;97856.59;;;8.81;100.00
32492;BME280;20605;49.742;18.802;2023-02-18T07:40:03;97857.11;;;8.81;100.00
32492;BME280;20605;49.742;18.802;2023-02-18T07:42:30;97852.02;;;8.84;100.00
32492;BME280;20605;49.742;18.802;2023-02-18T07:44:56;97848.33;;;8.87;100.00
32492;BME280;20605;49.742;18.802;2023-02-18T07:47:22;97841.97;;;8.92;100.00
32492;BME280;20605;49.742;18.802;2023-02-18T07:49:48;97839.80;;;8.96;100.00
32492;BME280;20605;49.742;18.802;2023-02-18T07:52:14;97840.41;;;8.99;100.00
32492;BME280;20605;49.742;18.802;2023-02-18T07:54:40;97849.66;;;9.03;100.00
32492;BME280;20605;49.742;18.802;2023-02-18T07:57:06;97854.20;;;9.08;100.00
32492;BME280;20605;49.742;18.802;2023-02-18T07:59:32;97851.70;;;9.17;100.00
32492;BME280;20605;49.742;18.802;2023-02-18T08:01:57;97844.60;;;9.24;100.00
32492;BME280;20605;49.742;18.802;2023-02-18T08:04:24;97839.99;;;9.28;100.00
32492;BME280;20605;49.742;18.802;2023-02-18T08:06:50;97838.85;;;9.31;100.00
32492;BME280;20605;49.742;18.802;2023-02-18T08:09:17;97834.61;;;9.35;100.00
32492;BME280;20605;49.742;18.802;2023-02-18T08:11:43;97836.96;;;9.38;100.00
32492;BME280;20605;49.742;18.802;2023-02-18T08:14:09;97840.75;;;9.39;100.00
32492;BME280;20605;49.742;18.802;2023-02-18T08:16:35;97843.16;;;9.39;100.00
32492;BME280;20605;49.742;18.802;2023-02-18T08:19:01;97842.48;;;9.39;100.00
32492;BME280;20605;49.742;18.802;2023-02-18T08:21:29;97841.40;;;9.40;100.00
32492;BME280;20605;49.742;18.802;2023-02-18T08:24:02;97848.81;;;9.42;100.00
32492;BME280;20605;49.742;18.802;2023-02-18T08:26:28;97846.36;;;9.42;100.00
32492;BME280;20605;49.742;18.802;2023-02-18T08:28:54;97853.44;;;9.44;100.00
32492;BME280;20605;49.742;18.802;2023-02-18T08:31:24;97849.64;;;9.43;100.00
32492;BME280;20605;49.742;18.802;2023-02-18T08:33:51;97848.28;;;9.42;100.00
32492;BME280;20605;49.742;18.802;2023-02-18T08:36:17;97850.52;;;9.43;100.00
32492;BME280;20605;49.742;18.802;2023-02-18T08:38:44;97855.10;;;9.40;100.00
32492;BME280;20605;49.742;18.802;2023-02-18T08:41:10;97855.67;;;9.38;100.00
32492;BME280;20605;49.742;18.802;2023-02-18T08:43:36;97856.92;;;9.36;100.00
32492;BME280;20605;49.742;18.802;2023-02-18T08:46:02;97854.48;;;9.36;100.00
32492;BME280;20605;49.742;18.802;2023-02-18T08:48:29;97845.86;;;9.36;100.00
32492;BME280;20605;49.742;18.802;2023-02-18T08:50:55;97838.80;;;9.33;100.00
32492;BME280;20605;49.742;18.802;2023-02-18T08:53:20;97841.96;;;9.32;100.00
32492;BME280;20605;49.742;18.802;2023-02-18T08:55:47;97842.23;;;9.28;100.00
32492;BME280;20605;49.742;18.802;2023-02-18T08:58:12;97840.18;;;9.27;100.00
32492;BME280;20605;49.742;18.802;2023-02-18T09:00:39;97838.66;;;9.26;100.00
32492;BME280;20605;49.742;18.802;2023-02-18T09:03:05;97837.70;;;9.23;100.00
32492;BME280;20605;49.742;18.802;2023-02-18T09:05:32;97832.44;;;9.18;100.00
32492;BME280;20605;49.742;18.802;2023-02-18T09:07:58;97835.73;;;9.18;100.00
32492;BME280;20605;49.742;18.802;2023-02-18T09:10:24;97842.27;;;9.20;100.00
32492;BME280;20605;49.742;18.802;2023-02-18T09:12:50;97845.95;;;9.19;100.00
32492;BME280;20605;49.742;18.802;2023-02-18T09:15:16;97847.55;;;9.16;100.00
32492;BME280;20605;49.742;18.802;2023-02-18T09:17:42;97846.63;;;9.12;100.00
32492;BME280;20605;49.742;18.802;2023-02-18T09:20:08;97843.13;;;9.08;100.00
32492;BME280;20605;49.742;18.802;2023-02-18T09:22:35;97848.35;;;9.07;100.00
32492;BME280;20605;49.742;18.802;2023-02-18T09:25:01;97844.08;;;9.04;100.00
32492;BME280;20605;49.742;18.802;2023-02-18T09:27:27;97847.76;;;9.03;100.00
32492;BME280;20605;49.742;18.802;2023-02-18T09:29:53;97845.02;;;9.01;100.00
32492;BME280;20605;49.742;18.802;2023-02-18T09:32:19;97857.48;;;9.02;100.00
32492;BME280;20605;49.742;18.802;2023-02-18T09:34:45;97862.51;;;9.02;100.00
32492;BME280;20605;49.742;18.802;2023-02-18T09:37:11;97857.05;;;8.98;100.00
32492;BME280;20605;49.742;18.802;2023-02-18T09:39:39;97859.57;;;8.94;100.00
32492;BME280;20605;49.742;18.802;2023-02-18T09:42:10;97856.80;;;8.94;100.00
32492;BME280;20605;49.742;18.802;2023-02-18T09:44:44;97854.40;;;8.94;100.00
32492;BME280;20605;49.742;18.802;2023-02-18T09:47:37;97854.22;;;8.94;100.00
32492;BME280;20605;49.742;18.802;2023-02-18T09:52:36;97844.52;;;8.94;100.00
32492;BME280;20605;49.742;18.802;2023-02-18T09:55:20;97842.06;;;8.95;100.00
32492;BME280;20605;49.742;18.802;2023-02-18T09:57:52;97842.55;;;8.97;100.00
32492;BME280;20605;49.742;18.802;2023-02-18T10:00:25;97834.20;;;8.98;100.00
32492;BME280;20605;49.742;18.802;2023-02-18T10:02:54;97830.34;;;9.00;100.00
32492;BME280;20605;49.742;18.802;2023-02-18T10:05:22;97825.57;;;9.04;100.00
32492;BME280;20605;49.742;18.802;2023-02-18T10:07:51;97819.50;;;9.10;100.00
32492;BME280;20605;49.742;18.802;2023-02-18T10:12:53;97802.45;;;9.19;100.00
32492;BME280;20605;49.742;18.802;2023-02-18T10:15:23;97793.06;;;9.20;100.00
32492;BME280;20605;49.742;18.802;2023-02-18T10:17:52;97789.14;;;9.25;100.00
32492;BME280;20605;49.742;18.802;2023-02-18T10:20:21;97787.98;;;9.29;100.00
32492;BME280;20605;49.742;18.802;2023-02-18T10:22:49;97787.03;;;9.32;100.00
32492;BME280;20605;49.742;18.802;2023-02-18T10:25:19;97785.92;;;9.28;100.00
32492;BME280;20605;49.742;18.802;2023-02-18T10:27:51;97784.48;;;9.24;100.00
32492;BME280;20605;49.742;18.802;2023-02-18T10:32:54;97775.91;;;9.27;100.00
32492;BME280;20605;49.742;18.802;2023-02-18T10:35:39;97773.50;;;9.26;100.00
32492;BME280;20605;49.742;18.802;2023-02-18T10:50:08;97748.55;;;9.26;100.00
32492;BME280;20605;49.742;18.802;2023-02-18T10:52:34;97745.14;;;9.24;100.00
32492;BME280;20605;49.742;18.802;2023-02-18T10:55:03;97741.67;;;9.24;100.00
32492;BME280;20605;49.742;18.802;2023-02-18T10:57:31;97742.19;;;9.31;100.00
32492;BME280;20605;49.742;18.802;2023-02-18T11:00:05;97743.01;;;9.38;100.00
32492;BME280;20605;49.742;18.802;2023-02-18T11:02:40;97740.52;;;9.47;100.00
32492;BME280;20605;49.742;18.802;2023-02-18T11:05:22;97741.04;;;9.53;100.00
32492;BME280;20605;49.742;18.802;2023-02-18T11:07:51;97735.05;;;9.51;100.00
32492;BME280;20605;49.742;18.802;2023-02-18T11:10:23;97733.09;;;9.52;100.00
32492;BME280;20605;49.742;18.802;2023-02-18T11:12:56;97734.41;;;9.54;100.00
32492;BME280;20605;49.742;18.802;2023-02-18T11:15:25;97727.58;;;9.57;100.00
32492;BME280;20605;49.742;18.802;2023-02-18T11:17:55;97722.04;;;9.57;100.00
32492;BME280;20605;49.742;18.802;2023-02-18T11:20:34;97710.55;;;9.53;100.00
32492;BME280;20605;49.742;18.802;2023-02-18T11:25:35;97711.75;;;9.40;100.00
32492;BME280;20605;49.742;18.802;2023-02-18T11:28:06;97708.77;;;9.30;100.00
32492;BME280;20605;49.742;18.802;2023-02-18T11:30:54;97709.80;;;9.24;100.00
32492;BME280;20605;49.742;18.802;2023-02-18T11:33:43;97707.22;;;9.17;100.00
32492;BME280;20605;49.742;18.802;2023-02-18T11:36:21;97700.56;;;9.08;100.00
32492;BME280;20605;49.742;18.802;2023-02-18T11:38:58;97699.43;;;9.05;100.00
32492;BME280;20605;49.742;18.802;2023-02-18T11:41:39;97694.06;;;9.05;100.00
32492;BME280;20605;49.742;18.802;2023-02-18T11:44:21;97689.14;;;9.08;100.00
32492;BME280;20605;49.742;18.802;2023-02-18T11:49:36;97674.20;;;9.04;100.00
32492;BME280;20605;49.742;18.802;2023-02-18T11:52:19;97671.51;;;9.00;100.00
32492;BME280;20605;49.742;18.802;2023-02-18T11:55:00;97667.23;;;8.92;100.00
32492;BME280;20605;49.742;18.802;2023-02-18T11:57:28;97663.55;;;8.88;100.00
32492;BME280;20605;49.742;18.802;2023-02-18T11:59:54;97658.69;;;8.88;100.00
32492;BME280;20605;49.742;18.802;2023-02-18T12:05:02;97642.89;;;8.90;100.00
32492;BME280;20605;49.742;18.802;2023-02-18T12:07:44;97633.20;;;8.83;100.00
32492;BME280;20605;49.742;18.802;2023-02-18T12:10:28;97621.95;;;8.76;100.00
32492;BME280;20605;49.742;18.802;2023-02-18T12:18:31;97598.29;;;8.75;100.00
32492;BME280;20605;49.742;18.802;2023-02-18T12:35:00;97556.66;;;8.34;100.00
32492;BME280;20605;49.742;18.802;2023-02-18T12:40:39;97542.34;;;8.32;100.00
32492;BME280;20605;49.742;18.802;2023-02-18T12:46:11;97521.90;;;8.40;100.00
32492;BME280;20605;49.742;18.802;2023-02-18T12:49:08;97513.11;;;8.38;100.00
32492;BME280;20605;49.742;18.802;2023-02-18T12:52:08;97502.77;;;8.37;100.00
32492;BME280;20605;49.742;18.802;2023-02-18T12:55:34;97497.06;;;8.30;100.00
32492;BME280;20605;49.742;18.802;2023-02-18T12:57:53;97488.52;;;8.25;100.00
32492;BME280;20605;49.742;18.802;2023-02-18T13:00:51;97485.46;;;8.24;100.00
32492;BME280;20605;49.742;18.802;2023-02-18T13:12:10;97451.63;;;8.27;100.00
32492;BME280;20605;49.742;18.802;2023-02-18T13:14:45;97451.27;;;8.35;100.00
32492;BME280;20605;49.742;18.802;2023-02-18T13:17:15;97442.89;;;8.43;100.00
32492;BME280;20605;49.742;18.802;2023-02-18T13:20:04;97440.80;;;8.50;100.00
32492;BME280;20605;49.742;18.802;2023-02-18T13:22:32;97427.21;;;8.59;100.00
32492;BME280;20605;49.742;18.802;2023-02-18T13:24:59;97426.85;;;8.65;100.00
32492;BME280;20605;49.742;18.802;2023-02-18T13:30:17;97415.12;;;8.75;100.00
32492;BME280;20605;49.742;18.802;2023-02-18T13:32:59;97410.84;;;8.79;100.00
32492;BME280;20605;49.742;18.802;2023-02-18T13:35:35;97405.45;;;8.86;100.00
32492;BME280;20605;49.742;18.802;2023-02-18T13:40:58;97396.21;;;8.99;100.00
32492;BME280;20605;49.742;18.802;2023-02-18T13:43:32;97392.77;;;9.03;100.00
32492;BME280;20605;49.742;18.802;2023-02-18T13:48:52;97380.48;;;9.08;100.00
32492;BME280;20605;49.742;18.802;2023-02-18T13:54:02;97372.97;;;9.14;100.00
32492;BME280;20605;49.742;18.802;2023-02-18T13:56:31;97369.75;;;9.18;100.00
32492;BME280;20605;49.742;18.802;2023-02-18T13:59:43;97364.52;;;9.19;100.00
32492;BME280;20605;49.742;18.802;2023-02-18T14:07:37;97357.15;;;9.27;100.00
32492;BME280;20605;49.742;18.802;2023-02-18T14:27:51;97301.11;;;9.49;100.00
32492;BME280;20605;49.742;18.802;2023-02-18T14:32:48;97293.11;;;9.50;100.00
32492;BME280;20605;49.742;18.802;2023-02-18T14:36:08;97289.97;;;9.51;100.00
32492;BME280;20605;49.742;18.802;2023-02-18T14:38:19;97278.02;;;9.50;100.00
32492;BME280;20605;49.742;18.802;2023-02-18T14:41:27;97275.95;;;9.50;100.00
32492;BME280;20605;49.742;18.802;2023-02-18T14:51:24;97256.66;;;9.42;100.00
32492;BME280;20605;49.742;18.802;2023-02-18T14:53:52;97258.14;;;9.39;100.00
32492;BME280;20605;49.742;18.802;2023-02-18T14:56:19;97248.87;;;9.37;100.00
32492;BME280;20605;49.742;18.802;2023-02-18T14:58:46;97245.48;;;9.34;100.00
32492;BME280;20605;49.742;18.802;2023-02-18T15:01:19;97239.24;;;9.34;100.00
32492;BME280;20605;49.742;18.802;2023-02-18T15:03:52;97243.45;;;9.33;100.00
32492;BME280;20605;49.742;18.802;2023-02-18T15:06:33;97232.16;;;9.34;100.00
32492;BME280;20605;49.742;18.802;2023-02-18T15:09:19;97236.98;;;9.39;100.00
32492;BME280;20605;49.742;18.802;2023-02-18T15:11:58;97242.61;;;9.47;100.00
32492;BME280;20605;49.742;18.802;2023-02-18T15:14:33;97248.64;;;9.53;100.00
32492;BME280;20605;49.742;18.802;2023-02-18T15:17:01;97240.69;;;9.57;100.00
32492;BME280;20605;49.742;18.802;2023-02-18T15:19:39;97241.42;;;9.60;100.00
32492;BME280;20605;49.742;18.802;2023-02-18T15:22:14;97236.98;;;9.63;100.00
32492;BME280;20605;49.742;18.802;2023-02-18T15:24:42;97240.52;;;9.66;100.00
32492;BME280;20605;49.742;18.802;2023-02-18T15:29:49;97231.93;;;9.69;100.00
32492;BME280;20605;49.742;18.802;2023-02-18T15:32:23;97230.65;;;9.70;100.00
32492;BME280;20605;49.742;18.802;2023-02-18T15:34:59;97224.36;;;9.72;100.00
32492;BME280;20605;49.742;18.802;2023-02-18T15:37:28;97222.36;;;9.70;100.00